Time;durP1;ratioP1;P1;durP2;ratioP2;P2;SDS_P1;SDS_P2;PMS_P1;PMS_P2;Temp;Humidity;BMP_temperature;BMP_pressure;BME280_temperature;BME280_humidity;BME280_pressure;Samples;Min_cycle;Max_cycle;Signal;HPM_P1;HPM_P2
2021/12/12 16:26:28;;;;;;;7.77;6.43;;;;;;;22.48;40.54;101256.47;5019513;27;2482943;-77
2021/12/12 16:28:58;;;;;;;7.40;6.60;;;;;;;21.58;42.17;101250.41;5126933;27;20391;-82
2021/12/12 16:31:29;;;;;;;7.43;6.55;;;;;;;21.29;42.64;101249.38;5158673;27;20402;-81
2021/12/12 16:34:01;;;;;;;9.88;6.90;;;;;;;21.17;43.01;101246.28;5152971;27;20396;-79
2021/12/12 16:36:39;;;;;;;7.30;6.60;;;;;;;21.15;42.59;101250.19;5152313;27;20410;-84
2021/12/12 16:39:08;;;;;;;7.22;6.53;;;;;;;21.05;42.81;101252.31;5151590;27;20397;-85
2021/12/12 16:41:42;;;;;;;8.18;6.85;;;;;;;20.99;42.79;101256.56;5160181;27;20435;-81
2021/12/12 16:44:15;;;;;;;7.72;6.93;;;;;;;20.99;43.18;101261.94;5157169;27;20425;-88
2021/12/12 16:46:46;;;;;;;7.57;6.78;;;;;;;21.02;42.48;101258.88;5148146;27;20482;-92
2021/12/12 16:49:21;;;;;;;7.78;6.97;;;;;;;20.89;42.26;101246.03;5143977;27;20528;-80
2021/12/12 16:51:57;;;;;;;9.25;8.30;;;;;;;20.85;42.03;101249.28;5152312;27;20380;-83
2021/12/12 16:54:35;;;;;;;9.47;8.47;;;;;;;20.78;41.51;101249.16;5160920;27;20393;-79
2021/12/12 16:57:12;;;;;;;10.10;9.10;;;;;;;20.68;41.66;101243.19;5149087;27;20932;-81
2021/12/12 16:59:43;;;;;;;10.07;8.98;;;;;;;20.59;41.14;101248.63;5155836;27;20417;-81
2021/12/12 17:02:15;;;;;;;10.40;9.30;;;;;;;20.56;41.34;101254.38;5159335;27;20394;-83
2021/12/12 17:04:44;;;;;;;10.20;9.18;;;;;;;20.47;41.02;101252.72;5181758;27;20958;-82
2021/12/12 17:07:13;;;;;;;11.48;9.57;;;;;;;20.41;40.85;101258.84;5166910;27;21154;-87
2021/12/12 17:09:45;;;;;;;10.98;9.88;;;;;;;20.38;40.47;101257.34;5165054;27;20390;-83
2021/12/12 17:12:19;;;;;;;10.98;9.88;;;;;;;20.52;41.15;101266.50;5165376;27;20450;-82
2021/12/12 17:14:47;;;;;;;10.55;9.45;;;;;;;20.85;40.03;101266.28;5167427;27;20425;-86
2021/12/12 17:17:22;;;;;;;10.50;9.45;;;;;;;21.15;39.11;101283.34;5165125;27;20417;-89
2021/12/12 17:19:48;;;;;;;10.70;9.43;;;;;;;21.30;38.81;101286.06;5167480;27;20469;-89
2021/12/12 17:22:18;;;;;;;11.20;8.70;;;;;;;21.43;38.84;101279.22;5183687;27;20454;-89
2021/12/12 17:24:47;;;;;;;9.93;8.68;;;;;;;21.58;39.11;101262.03;5143353;27;21166;-81
2021/12/12 17:27:16;;;;;;;10.18;9.18;;;;;;;21.73;38.52;101288.97;5165020;27;20398;-90
2021/12/12 17:29:44;;;;;;;9.75;8.68;;;;;;;21.70;38.21;101289.38;5162744;27;20402;-90
2021/12/12 17:32:27;;;;;;;9.70;8.52;;;;;;;21.74;38.64;101290.66;5165419;27;20480;-93
2021/12/12 17:34:58;;;;;;;9.45;8.20;;;;;;;21.78;38.94;101289.28;5167906;27;20901;-83
2021/12/12 17:37:27;;;;;;;8.93;8.02;;;;;;;21.85;38.87;101293.91;5168226;27;20411;-83
2021/12/12 17:40:07;;;;;;;8.40;7.55;;;;;;;21.92;39.34;101294.84;5153495;27;20886;-84
2021/12/12 17:42:53;;;;;;;10.02;8.95;;;;;;;21.86;38.33;101304.53;5139836;27;23335;-85
2021/12/12 17:45:56;;;;;;;8.77;7.90;;;;;;;21.92;38.33;101306.47;5161854;27;20404;-83
2021/12/12 17:49:18;;;;;;;8.30;7.50;;;;;;;21.70;38.68;101302.84;5142890;27;20404;-86
2021/12/12 17:51:59;;;;;;;10.05;8.40;;;;;;;21.38;39.56;101320.19;5104834;28;20946;-84
2021/12/12 17:54:42;;;;;;;8.87;8.00;;;;;;;21.21;39.88;101314.13;5090912;28;20460;-84
2021/12/12 17:57:22;;;;;;;9.07;8.17;;;;;;;21.12;40.30;101321.41;5128988;27;20403;-85
2021/12/12 18:00:03;;;;;;;9.18;8.27;;;;;;;21.00;40.49;101315.66;5150073;27;20409;-83
2021/12/12 18:02:32;;;;;;;9.50;8.60;;;;;;;20.91;40.42;101313.19;5146899;27;20391;-83
2021/12/12 18:05:05;;;;;;;10.30;9.25;;;;;;;20.84;40.11;101323.84;5151986;27;20903;-84
2021/12/12 18:07:52;;;;;;;10.25;9.30;;;;;;;20.77;39.78;101336.34;5153966;27;20388;-85
2021/12/12 18:40:59;;;;;;;37.03;33.38;;;;;;;12.85;34.97;101420.38;5013588;27;20428;-70
2021/12/12 18:43:37;;;;;;;50.58;43.13;;;;;;;11.18;36.90;101418.25;5015244;28;21461;-70
2021/12/12 18:46:12;;;;;;;56.90;44.88;;;;;;;10.06;38.62;101424.47;4992136;28;24961;-70
2021/12/12 18:48:40;;;;;;;56.75;44.08;;;;;;;9.34;39.90;101424.88;5046702;28;20933;-70
2021/12/12 18:51:14;;;;;;;49.25;36.03;;;;;;;8.82;41.10;101418.59;5009228;28;87921;-69
2021/12/12 18:58:04;;;;;;;68.32;43.97;;;;;;;7.47;44.54;101407.53;5007161;27;20391;-70
2021/12/12 19:00:36;;;;;;;79.90;48.22;;;;;;;7.01;45.93;101397.84;5051790;28;20404;-71
2021/12/12 19:03:09;;;;;;;80.68;53.83;;;;;;;6.92;46.21;101399.22;5066783;28;20448;-71
2021/12/12 19:05:38;;;;;;;65.38;42.97;;;;;;;6.54;47.16;101391.66;5066518;28;20507;-71
2021/12/12 19:08:11;;;;;;;54.15;36.28;;;;;;;6.34;47.66;101394.53;5066749;28;20438;-70
2021/12/12 19:10:41;;;;;;;56.22;42.55;;;;;;;6.32;47.99;101384.09;5058355;28;20461;-71
2021/12/12 19:13:09;;;;;;;23.00;18.35;;;;;;;6.03;48.48;101387.44;5042082;28;21348;-71
2021/12/12 19:15:41;;;;;;;14.07;11.82;;;;;;;5.75;48.94;101383.59;5042546;28;20427;-71
2021/12/12 19:18:12;;;;;;;18.23;13.48;;;;;;;5.67;49.50;101391.88;5042497;28;20901;-71
2021/12/12 19:20:44;;;;;;;31.10;24.13;;;;;;;5.62;49.80;101386.84;5045621;28;20419;-70
2021/12/12 19:23:12;;;;;;;46.90;33.67;;;;;;;5.82;49.54;101390.25;5030196;28;21269;-75
2021/12/12 19:25:42;;;;;;;48.83;34.13;;;;;;;5.70;49.83;101391.72;5041280;28;20445;-70
2021/12/12 19:28:11;;;;;;;46.33;33.33;;;;;;;5.78;49.57;101389.56;5043765;28;20414;-71
2021/12/12 19:30:41;;;;;;;32.80;24.73;;;;;;;5.62;49.96;101388.66;5045400;28;20418;-70
2021/12/12 19:33:14;;;;;;;17.33;13.50;;;;;;;5.44;50.60;101395.69;5045159;28;20401;-70
2021/12/12 19:35:41;;;;;;;16.48;11.77;;;;;;;5.24;50.96;101394.03;5045649;28;20907;-71
2021/12/12 19:38:13;;;;;;;17.88;14.43;;;;;;;5.26;51.08;101400.06;5045730;28;20409;-70
2021/12/12 19:40:44;;;;;;;15.70;11.75;;;;;;;5.32;50.90;101399.78;5045747;28;20410;-70
2021/12/12 19:43:17;;;;;;;10.95;8.68;;;;;;;5.26;50.91;101399.22;5039692;28;20497;-70
2021/12/12 19:45:49;;;;;;;63.22;45.33;;;;;;;5.22;50.95;101398.53;5045766;28;20413;-70
2021/12/12 19:48:18;;;;;;;116.68;90.40;;;;;;;5.19;51.07;101396.91;5044671;28;20414;-70
2021/12/12 19:50:48;;;;;;;122.22;110.40;;;;;;;5.22;51.11;101401.16;5045532;28;20492;-70
2021/12/12 19:53:16;;;;;;;35.20;31.63;;;;;;;5.13;51.47;101407.72;5044849;28;20835;-70
2021/12/12 19:55:47;;;;;;;17.70;15.98;;;;;;;5.20;51.25;101411.72;5046209;28;20535;-70
2021/12/12 19:58:20;;;;;;;25.30;23.00;;;;;;;5.08;51.59;101407.09;5046508;28;20413;-70
2021/12/12 20:00:51;;;;;;;12.63;11.33;;;;;;;5.04;51.65;101405.53;5043659;28;20915;-70
2021/12/12 20:03:21;;;;;;;15.70;14.10;;;;;;;5.15;51.42;101411.13;5045255;28;20516;-70
2021/12/12 20:05:51;;;;;;;16.75;15.02;;;;;;;5.01;51.88;101398.66;5044816;28;20479;-70
2021/12/12 20:08:22;;;;;;;18.75;17.13;;;;;;;5.06;51.79;101401.06;5037285;28;20501;-70
2021/12/12 20:10:52;;;;;;;18.85;17.05;;;;;;;5.18;51.54;101397.81;5030618;28;20792;-70
2021/12/12 20:13:25;;;;;;;20.67;18.55;;;;;;;5.09;51.64;101407.91;5031226;28;20426;-70
2021/12/12 20:15:52;;;;;;;20.55;18.35;;;;;;;5.16;51.72;101398.84;5031936;28;20522;-71
2021/12/12 20:18:21;;;;;;;24.63;22.10;;;;;;;5.02;52.01;101404.75;5017147;28;20423;-71
2021/12/12 20:20:52;;;;;;;32.57;29.33;;;;;;;4.97;52.13;101412.03;5012844;28;20764;-71
2021/12/12 20:23:25;;;;;;;34.53;27.00;;;;;;;4.92;52.09;101412.22;5024788;28;20402;-71
2021/12/12 20:25:56;;;;;;;27.60;20.27;;;;;;;5.09;52.00;101408.78;5026788;28;20414;-70
2021/12/12 20:28:30;;;;;;;34.05;30.48;;;;;;;5.07;52.05;101405.41;5028474;28;20458;-70
2021/12/12 20:31:01;;;;;;;28.67;25.67;;;;;;;5.09;52.16;101410.53;5029133;28;20408;-70
2021/12/12 20:33:31;;;;;;;27.80;25.08;;;;;;;4.93;52.48;101416.56;5029329;28;20501;-70
2021/12/12 20:36:07;;;;;;;14.15;12.55;;;;;;;5.12;52.17;101415.66;5028863;28;20450;-70
2021/12/12 20:38:37;;;;;;;19.33;17.30;;;;;;;5.08;52.11;101414.13;5028739;28;20428;-70
2021/12/12 20:41:07;;;;;;;22.40;20.10;;;;;;;5.14;51.99;101413.81;5030793;28;20457;-70
2021/12/12 20:43:41;;;;;;;21.70;19.35;;;;;;;5.27;51.57;101420.19;5030358;28;20425;-70
2021/12/12 20:46:12;;;;;;;13.88;12.38;;;;;;;5.16;51.81;101420.69;5030765;28;20498;-69
2021/12/12 20:48:42;;;;;;;16.60;15.00;;;;;;;5.18;52.11;101425.88;5030694;28;20457;-70
2021/12/12 20:51:16;;;;;;;22.38;18.02;;;;;;;5.28;51.61;101424.50;5030424;28;20497;-70
2021/12/12 20:53:47;;;;;;;31.58;24.60;;;;;;;5.16;51.88;101425.94;5030147;28;20824;-70
2021/12/12 20:56:17;;;;;;;28.45;22.52;;;;;;;5.26;51.72;101425.50;5030187;28;20419;-70
2021/12/12 20:58:53;;;;;;;57.53;37.30;;;;;;;5.16;51.99;101425.09;5029687;28;20804;-70
2021/12/12 21:01:23;;;;;;;21.33;16.98;;;;;;;5.15;52.21;101431.25;5027833;28;20403;-70
2021/12/12 21:03:53;;;;;;;33.42;22.40;;;;;;;5.22;51.75;101432.69;5028125;28;20859;-70
2021/12/12 21:06:24;;;;;;;107.20;53.90;;;;;;;5.07;52.08;101436.91;5030327;28;20417;-70
2021/12/12 21:08:55;;;;;;;42.92;26.65;;;;;;;5.08;52.04;101441.22;5030563;28;20421;-70
2021/12/12 21:11:30;;;;;;;28.60;20.25;;;;;;;4.98;52.46;101435.56;5030527;28;20446;-70
2021/12/12 21:13:58;;;;;;;28.60;19.88;;;;;;;4.97;52.33;101439.13;5030173;28;20939;-70
2021/12/12 21:16:30;;;;;;;68.65;38.45;;;;;;;5.09;52.23;101442.06;5030559;28;20414;-70
2021/12/12 21:19:01;;;;;;;38.90;24.20;;;;;;;4.91;52.76;101441.19;5028549;28;20969;-69
2021/12/12 21:21:33;;;;;;;34.03;20.63;;;;;;;5.22;51.95;101437.94;5029368;28;20501;-70
2021/12/12 21:24:13;;;;;;;52.60;29.97;;;;;;;4.99;52.58;101439.91;5006688;28;21009;-70
2021/12/12 21:26:44;;;;;;;40.57;26.83;;;;;;;5.10;52.45;101438.53;5028812;28;20499;-70
2021/12/12 21:29:13;;;;;;;46.57;33.97;;;;;;;5.08;52.61;101443.00;5029654;28;20426;-70
2021/12/12 21:31:45;;;;;;;36.53;30.75;;;;;;;5.14;52.39;101451.44;5014600;28;20431;-70
2021/12/12 21:34:14;;;;;;;42.60;28.77;;;;;;;5.11;52.46;101440.22;5025114;28;20426;-70
2021/12/12 21:36:48;;;;;;;20.20;16.17;;;;;;;5.05;52.58;101437.88;5029856;28;20429;-70
2021/12/12 21:39:36;;;;;;;15.95;13.27;;;;;;;4.99;52.67;101434.66;5029437;28;20410;-71
2021/12/12 21:42:09;;;;;;;88.60;73.82;;;;;;;4.99;52.51;101436.44;5027015;28;20433;-70
2021/12/12 21:44:41;;;;;;;321.73;248.27;;;;;;;4.96;53.07;101442.66;5029900;28;20816;-69
2021/12/12 21:47:14;;;;;;;25.77;23.08;;;;;;;5.04;52.80;101438.81;5028830;28;20452;-71
2021/12/12 21:49:49;;;;;;;68.95;63.55;;;;;;;5.05;52.62;101443.13;5029713;28;20454;-70
2021/12/12 21:52:18;;;;;;;51.60;47.67;;;;;;;5.06;52.56;101437.81;5029818;28;20940;-70
2021/12/12 21:54:47;;;;;;;21.63;19.77;;;;;;;5.05;52.91;101441.38;5030264;28;20474;-70
2021/12/12 21:57:15;;;;;;;15.37;13.87;;;;;;;4.89;53.51;101441.25;5029219;28;20434;-70
2021/12/12 21:59:45;;;;;;;24.65;22.40;;;;;;;5.05;52.90;101441.38;5028719;28;20501;-70
2021/12/12 22:02:14;;;;;;;16.17;14.57;;;;;;;5.08;52.60;101435.13;5029657;28;20928;-70
2021/12/12 22:04:45;;;;;;;18.45;16.10;;;;;;;4.97;53.14;101441.75;5029485;28;20521;-70
2021/12/12 22:07:17;;;;;;;26.92;24.02;;;;;;;4.98;53.21;101443.44;5029411;28;20766;-70
2021/12/12 22:09:51;;;;;;;26.08;23.38;;;;;;;4.92;53.39;101448.13;5029065;28;20418;-70
2021/12/12 22:12:22;;;;;;;17.15;14.75;;;;;;;4.92;53.48;101448.97;5029749;28;20497;-70
2021/12/12 22:14:53;;;;;;;22.60;20.50;;;;;;;5.01;53.10;101452.97;5029093;28;20426;-70
2021/12/12 22:17:24;;;;;;;20.67;18.70;;;;;;;4.93;53.26;101453.31;5027412;28;20437;-70
2021/12/12 22:19:55;;;;;;;19.20;17.30;;;;;;;4.89;53.30;101454.38;5028061;28;20471;-70
2021/12/12 22:22:25;;;;;;;24.33;22.13;;;;;;;4.89;53.47;101454.38;5026703;28;20422;-70
2021/12/12 22:24:59;;;;;;;15.48;13.90;;;;;;;4.76;53.90;101459.34;5003075;28;20509;-70
2021/12/12 22:27:29;;;;;;;18.80;17.15;;;;;;;4.83;53.58;101446.81;5029062;28;20489;-70
2021/12/12 22:30:01;;;;;;;15.35;13.75;;;;;;;4.72;53.91;101451.69;5026814;28;20525;-70
2021/12/12 22:32:35;;;;;;;15.70;14.15;;;;;;;4.97;53.33;101448.78;5028943;28;20477;-70
2021/12/12 22:35:06;;;;;;;17.10;15.50;;;;;;;4.98;53.25;101450.47;5029033;28;20410;-71
2021/12/12 22:37:35;;;;;;;14.27;12.97;;;;;;;4.97;53.16;101448.78;5028110;28;20890;-70
2021/12/12 22:40:09;;;;;;;27.38;25.27;;;;;;;4.82;53.72;101443.34;5027409;28;20513;-71
2021/12/12 22:42:39;;;;;;;17.48;15.95;;;;;;;4.93;53.38;101450.69;5028369;28;20497;-70
2021/12/12 22:45:12;;;;;;;12.33;11.13;;;;;;;4.81;53.49;101446.88;5027537;28;20417;-70
2021/12/12 22:47:42;;;;;;;18.50;16.88;;;;;;;4.82;53.76;101447.72;5026265;28;20444;-70
2021/12/12 22:50:12;;;;;;;23.67;21.70;;;;;;;4.91;53.59;101441.19;5027270;28;20497;-69
2021/12/12 22:52:44;;;;;;;11.32;10.32;;;;;;;4.88;53.45;101444.78;5027671;28;20505;-70
2021/12/12 22:55:17;;;;;;;18.98;17.58;;;;;;;4.94;53.45;101444.50;5028212;28;20418;-70
2021/12/12 22:57:47;;;;;;;13.77;12.57;;;;;;;4.96;53.37;101442.66;5027538;28;20437;-70
2021/12/12 23:00:53;;;;;;;11.60;10.50;;;;;;;5.00;53.08;101438.97;5028052;28;20871;-70
2021/12/12 23:03:25;;;;;;;19.80;18.10;;;;;;;4.95;53.48;101432.25;5010547;28;20414;-70
2021/12/12 23:06:01;;;;;;;12.48;11.32;;;;;;;4.86;53.65;101432.66;5027442;28;20414;-69
2021/12/12 23:08:29;;;;;;;8.57;7.78;;;;;;;4.94;53.32;101435.78;5028216;28;20426;-70
2021/12/12 23:11:00;;;;;;;7.72;6.85;;;;;;;4.94;53.29;101434.00;5028245;28;20497;-70
2021/12/12 23:13:29;;;;;;;7.83;6.80;;;;;;;4.79;53.87;101440.84;5027867;28;20627;-70
2021/12/12 23:16:01;;;;;;;7.38;6.60;;;;;;;4.87;53.67;101439.66;5027113;28;20873;-70
2021/12/12 23:18:34;;;;;;;8.25;6.80;;;;;;;4.81;54.01;101438.16;5027794;28;20525;-71
2021/12/12 23:21:05;;;;;;;8.90;7.17;;;;;;;4.85;53.65;101444.97;5028282;28;20909;-70
2021/12/12 23:23:38;;;;;;;9.33;7.60;;;;;;;4.81;53.94;101446.03;5007665;28;20421;-70
2021/12/12 23:26:09;;;;;;;8.60;7.57;;;;;;;4.67;54.39;101451.06;5023943;28;20504;-70
2021/12/12 23:31:28;;;;;;;10.13;7.95;;;;;;;4.68;54.02;101450.13;5027638;28;20426;-70
2021/12/12 23:34:00;;;;;;;10.52;8.15;;;;;;;4.51;54.67;101445.66;5014372;28;20421;-70
2021/12/12 23:36:28;;;;;;;10.27;8.50;;;;;;;4.69;53.96;101442.19;5027807;28;20453;-70
2021/12/12 23:38:59;;;;;;;12.45;9.55;;;;;;;4.54;54.49;101441.13;5028685;28;20429;-70
2021/12/12 23:41:33;;;;;;;14.45;11.25;;;;;;;4.54;54.77;101440.25;5028756;28;20418;-70
2021/12/12 23:44:33;;;;;;;16.05;12.70;;;;;;;4.49;54.88;101443.09;5030016;28;20454;-70
2021/12/12 23:47:03;;;;;;;15.52;13.10;;;;;;;4.66;54.48;101447.56;5031808;28;20512;-70
2021/12/12 23:49:39;;;;;;;13.80;11.75;;;;;;;4.55;54.71;101453.31;5031890;28;20800;-70
2021/12/12 23:52:16;;;;;;;12.13;9.20;;;;;;;4.75;54.12;101451.56;5021587;28;20448;-70
2021/12/12 23:54:46;;;;;;;14.75;9.18;;;;;;;4.77;54.03;101454.97;5032045;28;20453;-70
2021/12/12 23:57:20;;;;;;;13.15;8.45;;;;;;;4.73;54.11;101456.03;5031858;28;20417;-70
2021/12/12 23:59:51;;;;;;;12.38;8.38;;;;;;;4.69;54.23;101463.19;5031701;28;20505;-70
